Time,TemperatureF,DewpointF,PressureIn,WindDirection,WindDirectionDegrees,WindSpeedMPH,WindSpeedGustMPH,Humidity,HourlyPrecipIn,Conditions,Clouds,dailyrainin,SolarRadiationWatts/m^2,SoftwareType,DateUTC
2013-01-16 00:02:00,38.0,30.0,-100.00,NNW,344,10.0,19.0,74,0.00,,,0.06,0.000000,,2013-01-16 06:02:00,
2013-01-16 00:22:00,37.0,30.0,-100.00,NNW,336,8.0,15.0,76,0.00,,,0.06,0.000000,,2013-01-16 06:22:00,
2013-01-16 00:33:00,37.0,30.0,-100.00,NNW,336,8.0,15.0,76,0.00,,,0.06,0.000000,,2013-01-16 06:33:00,
2013-01-16 00:43:00,37.0,30.0,-100.00,NNW,336,8.0,15.0,76,0.00,,,0.06,0.000000,,2013-01-16 06:43:00,
2013-01-16 00:53:00,37.0,30.0,-100.00,NNW,336,8.0,15.0,76,0.00,,,0.06,0.000000,,2013-01-16 06:53:00,
2013-01-16 01:02:00,37.0,30.0,-100.00,NNW,336,8.0,15.0,76,0.00,,,0.06,0.000000,,2013-01-16 07:02:00,
2013-01-16 01:22:00,38.0,29.0,-100.00,NNW,329,8.0,17.0,70,0.00,,,0.06,0.000000,,2013-01-16 07:22:00,
2013-01-16 01:33:00,38.0,29.0,-100.00,NNW,329,8.0,17.0,70,0.00,,,0.06,0.000000,,2013-01-16 07:33:00,
2013-01-16 01:42:00,38.0,29.0,-100.00,NNW,329,8.0,17.0,70,0.00,,,0.06,0.000000,,2013-01-16 07:42:00,
2013-01-16 01:52:00,38.0,29.0,-100.00,NNW,329,8.0,17.0,70,0.00,,,0.06,0.000000,,2013-01-16 07:52:00,
2013-01-16 02:02:00,38.0,29.0,-100.00,NNW,329,8.0,17.0,70,0.00,,,0.06,0.000000,,2013-01-16 08:02:00,
2013-01-16 02:23:00,38.0,29.0,-100.00,NW,319,8.0,15.0,69,0.00,,,0.06,0.000000,,2013-01-16 08:23:00,
2013-01-16 02:32:00,38.0,29.0,-100.00,NW,319,8.0,15.0,69,0.00,,,0.06,0.000000,,2013-01-16 08:32:00,
2013-01-16 02:42:00,38.0,29.0,-100.00,NW,319,8.0,15.0,69,0.00,,,0.06,0.000000,,2013-01-16 08:42:00,
2013-01-16 02:53:00,38.0,29.0,-100.00,NW,319,8.0,15.0,69,0.00,,,0.06,0.000000,,2013-01-16 08:53:00,
2013-01-16 03:02:00,38.0,29.0,-100.00,NW,319,8.0,15.0,69,0.00,,,0.06,0.000000,,2013-01-16 09:02:00,
2013-01-16 03:33:00,37.0,26.0,-100.00,NW,323,8.0,15.0,65,0.00,,,0.06,0.000000,,2013-01-16 09:33:00,
2013-01-16 03:43:00,37.0,26.0,-100.00,NW,323,8.0,15.0,65,0.00,,,0.06,0.000000,,2013-01-16 09:43:00,
2013-01-16 03:53:00,37.0,26.0,-100.00,NW,323,8.0,15.0,65,0.00,,,0.06,0.000000,,2013-01-16 09:53:00,
2013-01-16 04:02:00,37.0,26.0,-100.00,NW,323,8.0,15.0,65,0.00,,,0.06,0.000000,,2013-01-16 10:02:00,
2013-01-16 04:33:00,37.0,25.0,-100.00,NW,325,7.0,12.0,61,0.00,,,0.05,0.000000,,2013-01-16 10:33:00,
2013-01-16 04:43:00,37.0,25.0,-100.00,NW,325,7.0,12.0,61,0.00,,,0.05,0.000000,,2013-01-16 10:43:00,
2013-01-16 04:53:00,37.0,25.0,-100.00,NW,325,7.0,12.0,61,0.00,,,0.05,0.000000,,2013-01-16 10:53:00,
2013-01-16 05:02:00,37.0,25.0,-100.00,NW,325,7.0,12.0,61,0.00,,,0.05,0.000000,,2013-01-16 11:02:00,
2013-01-16 05:03:00,36.0,23.0,-100.00,NW,323,7.0,12.0,59,0.00,,,0.04,0.000000,,2013-01-16 11:03:00,
2013-01-16 05:33:00,36.0,23.0,-100.00,NW,323,7.0,12.0,59,0.00,,,0.04,0.000000,,2013-01-16 11:33:00,
2013-01-16 05:43:00,36.0,23.0,-100.00,NW,323,7.0,12.0,59,0.00,,,0.04,0.000000,,2013-01-16 11:43:00,
2013-01-16 05:53:00,36.0,23.0,-100.00,NW,323,7.0,12.0,59,0.00,,,0.04,0.000000,,2013-01-16 11:53:00,
2013-01-16 06:03:00,35.0,24.0,-100.00,NW,309,4.0,15.0,63,0.00,,,0.02,0.000000,,2013-01-16 12:03:00,
2013-01-16 06:33:00,35.0,24.0,-100.00,NW,309,4.0,15.0,63,0.00,,,0.02,0.000000,,2013-01-16 12:33:00,
2013-01-16 06:43:00,35.0,24.0,-100.00,NW,309,4.0,15.0,63,0.00,,,0.02,0.000000,,2013-01-16 12:43:00,
2013-01-16 06:53:00,35.0,24.0,-100.00,NW,309,4.0,15.0,63,0.00,,,0.02,0.000000,,2013-01-16 12:53:00,
2013-01-16 07:03:00,33.0,23.0,-100.00,WNW,294,4.0,9.0,67,0.00,,,0.01,0.000000,,2013-01-16 13:03:00,
2013-01-16 07:33:00,33.0,23.0,-100.00,WNW,294,4.0,9.0,67,0.00,,,0.01,0.000000,,2013-01-16 13:33:00,
2013-01-16 07:43:00,33.0,23.0,-100.00,WNW,294,4.0,9.0,67,0.00,,,0.01,0.000000,,2013-01-16 13:43:00,
2013-01-16 07:53:00,33.0,23.0,-100.00,WNW,294,4.0,9.0,67,0.00,,,0.01,0.000000,,2013-01-16 13:53:00,
2013-01-16 08:03:00,33.0,24.0,-100.00,WNW,294,3.0,6.0,70,0.00,,,0.00,27.000000,,2013-01-16 14:03:00,
2013-01-16 08:33:00,33.0,24.0,-100.00,WNW,294,3.0,6.0,70,0.00,,,0.00,27.000000,,2013-01-16 14:33:00,
2013-01-16 08:43:00,33.0,24.0,-100.00,WNW,294,3.0,6.0,70,0.00,,,0.00,27.000000,,2013-01-16 14:43:00,
2013-01-16 08:53:00,33.0,24.0,-100.00,WNW,294,3.0,6.0,70,0.00,,,0.00,27.000000,,2013-01-16 14:53:00,
2013-01-16 09:03:00,38.0,25.0,-100.00,NW,316,5.0,12.0,59,0.00,,,0.00,257.000000,,2013-01-16 15:03:00,
2013-01-16 09:33:00,38.0,25.0,-100.00,NW,316,5.0,12.0,59,0.00,,,0.00,257.000000,,2013-01-16 15:33:00,
2013-01-16 09:43:00,38.0,25.0,-100.00,NW,316,5.0,12.0,59,0.00,,,0.00,257.000000,,2013-01-16 15:43:00,
2013-01-16 09:53:00,38.0,25.0,-100.00,NW,316,5.0,12.0,59,0.00,,,0.00,257.000000,,2013-01-16 15:53:00,
2013-01-16 10:03:00,42.0,23.0,-100.00,WNW,303,6.0,12.0,47,0.00,,,0.00,452.000000,,2013-01-16 16:03:00,
2013-01-16 10:33:00,42.0,23.0,-100.00,WNW,303,6.0,12.0,47,0.00,,,0.00,452.000000,,2013-01-16 16:33:00,
2013-01-16 10:43:00,42.0,23.0,-100.00,WNW,303,6.0,12.0,47,0.00,,,0.00,452.000000,,2013-01-16 16:43:00,
2013-01-16 10:53:00,42.0,23.0,-100.00,WNW,303,6.0,12.0,47,0.00,,,0.00,452.000000,,2013-01-16 16:53:00,
2013-01-16 11:03:00,45.0,20.0,-100.00,NNW,330,9.0,16.0,37,0.00,,,0.00,637.000000,,2013-01-16 17:03:00,
2013-01-16 11:33:00,45.0,20.0,-100.00,NNW,330,9.0,16.0,37,0.00,,,0.00,637.000000,,2013-01-16 17:33:00,
2013-01-16 11:44:00,45.0,20.0,-100.00,NNW,330,9.0,16.0,37,0.00,,,0.00,637.000000,,2013-01-16 17:44:00,
2013-01-16 11:53:00,45.0,20.0,-100.00,NNW,330,9.0,16.0,37,0.00,,,0.00,637.000000,,2013-01-16 17:53:00,
2013-01-16 12:03:00,48.0,17.0,-100.00,NW,311,9.0,16.0,29,0.00,,,0.00,741.000000,,2013-01-16 18:03:00,
2013-01-16 12:33:00,48.0,17.0,-100.00,NW,311,9.0,16.0,29,0.00,,,0.00,741.000000,,2013-01-16 18:33:00,
2013-01-16 12:43:00,48.0,17.0,-100.00,NW,311,9.0,16.0,29,0.00,,,0.00,741.000000,,2013-01-16 18:43:00,
2013-01-16 12:53:00,48.0,17.0,-100.00,NW,311,9.0,16.0,29,0.00,,,0.00,741.000000,,2013-01-16 18:53:00,
2013-01-16 13:03:00,49.0,17.0,-100.00,NW,326,10.0,17.0,28,0.00,,,0.00,772.000000,,2013-01-16 19:03:00,
2013-01-16 13:33:00,49.0,17.0,-100.00,NW,326,10.0,17.0,28,0.00,,,0.00,772.000000,,2013-01-16 19:33:00,
2013-01-16 13:43:00,49.0,17.0,-100.00,NW,326,10.0,17.0,28,0.00,,,0.00,772.000000,,2013-01-16 19:43:00,
2013-01-16 13:53:00,49.0,17.0,-100.00,NW,326,10.0,17.0,28,0.00,,,0.00,772.000000,,2013-01-16 19:53:00,
2013-01-16 14:03:00,51.0,21.0,-100.00,NW,315,9.0,16.0,30,0.00,,,0.00,726.000000,,2013-01-16 20:03:00,
2013-01-16 14:23:00,51.0,21.0,-100.00,NW,315,9.0,16.0,30,0.00,,,0.00,726.000000,,2013-01-16 20:23:00,
2013-01-16 14:33:00,51.0,21.0,-100.00,NW,315,9.0,16.0,30,0.00,,,0.00,726.000000,,2013-01-16 20:33:00,
2013-01-16 14:43:00,51.0,21.0,-100.00,NW,315,9.0,16.0,30,0.00,,,0.00,726.000000,,2013-01-16 20:43:00,
2013-01-16 14:53:00,51.0,21.0,-100.00,NW,315,9.0,16.0,30,0.00,,,0.00,726.000000,,2013-01-16 20:53:00,
2013-01-16 15:33:00,53.0,23.0,-100.00,WNW,300,8.0,14.0,31,0.00,,,0.00,605.000000,,2013-01-16 21:33:00,
2013-01-16 15:43:00,53.0,23.0,-100.00,WNW,300,8.0,14.0,31,0.00,,,0.00,605.000000,,2013-01-16 21:43:00,
2013-01-16 15:53:00,53.0,23.0,-100.00,WNW,300,8.0,14.0,31,0.00,,,0.00,605.000000,,2013-01-16 21:53:00,
2013-01-16 16:02:00,53.0,23.0,-100.00,WNW,300,8.0,14.0,31,0.00,,,0.00,605.000000,,2013-01-16 22:02:00,
2013-01-16 16:03:00,53.0,21.0,-100.00,NW,304,6.0,14.0,28,0.00,,,0.00,433.000000,,2013-01-16 22:03:00,
2013-01-16 16:23:00,53.0,21.0,-100.00,NW,304,6.0,14.0,28,0.00,,,0.00,433.000000,,2013-01-16 22:23:00,
2013-01-16 16:33:00,53.0,21.0,-100.00,NW,304,6.0,14.0,28,0.00,,,0.00,433.000000,,2013-01-16 22:33:00,
2013-01-16 16:43:00,53.0,21.0,-100.00,NW,304,6.0,14.0,28,0.00,,,0.00,433.000000,,2013-01-16 22:43:00,
2013-01-16 16:53:00,53.0,21.0,-100.00,NW,304,6.0,14.0,28,0.00,,,0.00,433.000000,,2013-01-16 22:53:00,
2013-01-16 17:33:00,53.0,19.0,-100.00,NW,314,6.0,14.0,26,0.00,,,0.00,230.000000,,2013-01-16 23:33:00,
2013-01-16 17:43:00,53.0,19.0,-100.00,NW,314,6.0,14.0,26,0.00,,,0.00,230.000000,,2013-01-16 23:43:00,
2013-01-16 17:53:00,53.0,19.0,-100.00,NW,314,6.0,14.0,26,0.00,,,0.00,230.000000,,2013-01-16 23:53:00,
2013-01-16 18:02:00,53.0,19.0,-100.00,NW,314,6.0,14.0,26,0.00,,,0.00,230.000000,,2013-01-17 00:02:00,
2013-01-16 18:33:00,48.0,19.0,-100.00,NW,324,3.0,10.0,31,0.00,,,0.00,37.000000,,2013-01-17 00:33:00,
2013-01-16 18:42:00,48.0,19.0,-100.00,NW,324,3.0,10.0,31,0.00,,,0.00,37.000000,,2013-01-17 00:42:00,
2013-01-16 18:52:00,48.0,19.0,-100.00,NW,324,3.0,10.0,31,0.00,,,0.00,37.000000,,2013-01-17 00:52:00,
2013-01-16 19:02:00,48.0,19.0,-100.00,NW,324,3.0,10.0,31,0.00,,,0.00,37.000000,,2013-01-17 01:02:00,
2013-01-16 19:22:00,40.0,23.0,-100.00,NE,42,0.0,3.0,50,0.00,,,0.00,0.000000,,2013-01-17 01:22:00,
2013-01-16 19:33:00,40.0,23.0,-100.00,NE,42,0.0,3.0,50,0.00,,,0.00,0.000000,,2013-01-17 01:33:00,
2013-01-16 19:43:00,40.0,23.0,-100.00,NE,42,0.0,3.0,50,0.00,,,0.00,0.000000,,2013-01-17 01:43:00,
2013-01-16 19:52:00,40.0,23.0,-100.00,NE,42,0.0,3.0,50,0.00,,,0.00,0.000000,,2013-01-17 01:52:00,
2013-01-16 20:02:00,40.0,23.0,-100.00,NE,42,0.0,3.0,50,0.00,,,0.00,0.000000,,2013-01-17 02:02:00,
2013-01-16 20:03:00,36.0,25.0,-100.00,NNE,23,0.0,0.0,64,0.00,,,0.00,0.000000,,2013-01-17 02:03:00,
2013-01-16 20:32:00,36.0,25.0,-100.00,NNE,23,0.0,0.0,64,0.00,,,0.00,0.000000,,2013-01-17 02:32:00,
2013-01-16 20:43:00,36.0,25.0,-100.00,NNE,23,0.0,0.0,64,0.00,,,0.00,0.000000,,2013-01-17 02:43:00,
2013-01-16 20:52:00,36.0,25.0,-100.00,NNE,23,0.0,0.0,64,0.00,,,0.00,0.000000,,2013-01-17 02:52:00,
2013-01-16 21:33:00,33.0,26.0,-100.00,East,94,0.0,0.0,74,0.00,,,0.00,0.000000,,2013-01-17 03:33:00,
2013-01-16 21:43:00,33.0,26.0,-100.00,East,94,0.0,0.0,74,0.00,,,0.00,0.000000,,2013-01-17 03:43:00,
2013-01-16 21:52:00,33.0,26.0,-100.00,East,94,0.0,0.0,74,0.00,,,0.00,0.000000,,2013-01-17 03:52:00,
2013-01-16 22:02:00,33.0,26.0,-100.00,East,94,0.0,0.0,74,0.00,,,0.00,0.000000,,2013-01-17 04:02:00,
2013-01-16 22:03:00,31.0,26.0,-100.00,ENE,71,0.0,4.0,81,0.00,,,0.00,0.000000,,2013-01-17 04:03:00,
2013-01-16 22:33:00,31.0,26.0,-100.00,ENE,71,0.0,4.0,81,0.00,,,0.00,0.000000,,2013-01-17 04:33:00,
2013-01-16 22:43:00,31.0,26.0,-100.00,ENE,71,0.0,4.0,81,0.00,,,0.00,0.000000,,2013-01-17 04:43:00,
2013-01-16 22:52:00,31.0,26.0,-100.00,ENE,71,0.0,4.0,81,0.00,,,0.00,0.000000,,2013-01-17 04:52:00,
2013-01-16 23:33:00,30.0,26.0,-100.00,SE,142,0.0,2.0,84,0.00,,,0.00,0.000000,,2013-01-17 05:33:00,
2013-01-16 23:43:00,30.0,26.0,-100.00,SE,142,0.0,2.0,84,0.00,,,0.00,0.000000,,2013-01-17 05:43:00,
2013-01-16 23:53:00,30.0,26.0,-100.00,SE,142,0.0,2.0,84,0.00,,,0.00,0.000000,,2013-01-17 05:53:00,